createdAt,value
2018-05-05T00:01:47.031Z,17.80
2018-05-05T00:04:15.439Z,17.67
2018-05-05T00:06:42.838Z,16.93
2018-05-05T00:09:10.127Z,17.37
2018-05-05T00:11:37.456Z,17.40
2018-05-05T00:14:04.765Z,16.20
2018-05-05T00:16:32.129Z,17.23
2018-05-05T00:18:59.440Z,17.83
2018-05-05T00:21:26.724Z,16.47
2018-05-05T00:23:54.083Z,15.40
2018-05-05T00:26:21.362Z,16.80
2018-05-05T00:28:48.637Z,17.03
2018-05-05T00:31:15.946Z,17.23
2018-05-05T00:33:43.228Z,16.27
2018-05-05T00:36:10.532Z,17.30
2018-05-05T00:38:38.513Z,16.93
2018-05-05T00:41:05.866Z,17.00
2018-05-05T00:43:33.146Z,16.50
2018-05-05T00:46:00.455Z,17.93
2018-05-05T00:48:27.814Z,17.20
2018-05-05T00:50:55.093Z,16.03
2018-05-05T00:53:22.376Z,17.27
2018-05-05T00:55:49.733Z,17.50
2018-05-05T00:58:17.162Z,19.67
2018-05-05T01:00:44.429Z,17.63
2018-05-05T01:03:12.209Z,18.57
2018-05-05T01:05:39.500Z,18.03
2018-05-05T01:08:06.801Z,19.27
2018-05-05T01:10:34.096Z,20.00
2018-05-05T01:13:01.367Z,19.13
2018-05-05T01:15:28.653Z,19.57
2018-05-05T01:17:56.011Z,21.90
2018-05-05T01:20:23.321Z,19.40
2018-05-05T01:22:50.643Z,18.90
2018-05-05T01:25:23.540Z,18.40
2018-05-05T01:27:51.756Z,19.33
2018-05-05T01:30:19.035Z,20.00
2018-05-05T01:32:47.055Z,20.03
2018-05-05T01:35:14.383Z,20.10
2018-05-05T01:37:41.785Z,20.53
2018-05-05T01:40:09.060Z,18.67
2018-05-05T01:42:36.355Z,19.70
2018-05-05T01:45:03.688Z,21.00
2018-05-05T01:47:31.177Z,20.27
2018-05-05T01:49:58.543Z,20.30
2018-05-05T01:52:25.845Z,20.20
2018-05-05T01:54:53.186Z,21.07
2018-05-05T01:57:20.463Z,20.47
2018-05-05T01:59:47.792Z,19.63
2018-05-05T02:02:15.059Z,18.17
2018-05-05T02:04:42.326Z,20.17
2018-05-05T02:07:09.661Z,19.13
2018-05-05T02:09:36.988Z,18.40
2018-05-05T02:12:04.318Z,18.20
2018-05-05T02:14:31.757Z,17.20
2018-05-05T02:16:59.057Z,18.10
2018-05-05T02:19:26.813Z,17.67
2018-05-05T02:21:54.197Z,17.00
2018-05-05T02:24:21.573Z,17.27
2018-05-05T02:26:48.892Z,16.77
2018-05-05T02:29:16.190Z,14.73
2018-05-05T02:31:43.650Z,15.93
2018-05-05T02:34:11.001Z,14.30
2018-05-05T02:36:38.293Z,15.27
2018-05-05T02:39:05.588Z,15.53
2018-05-05T02:41:32.893Z,14.50
2018-05-05T02:44:00.729Z,13.53
2018-05-05T02:46:28.021Z,15.13
2018-05-05T02:48:55.324Z,13.53
2018-05-05T02:51:22.677Z,15.13
2018-05-05T02:53:49.982Z,13.50
2018-05-05T02:56:17.278Z,13.43
2018-05-05T02:58:45.308Z,13.27
2018-05-05T03:01:12.647Z,14.73
2018-05-05T03:03:39.929Z,15.13
2018-05-05T03:06:07.249Z,13.27
2018-05-05T03:08:34.543Z,12.83
2018-05-05T03:11:01.966Z,13.13
2018-05-05T03:13:29.289Z,12.17
2018-05-05T03:15:56.599Z,12.67
2018-05-05T03:18:23.886Z,12.83
2018-05-05T03:20:51.194Z,12.33
2018-05-05T03:23:18.500Z,12.90
2018-05-05T03:25:45.823Z,13.53
2018-05-05T03:30:47.025Z,13.80
2018-05-05T03:33:14.334Z,13.60
2018-05-05T03:35:41.636Z,14.10
2018-05-05T03:38:08.909Z,12.97
2018-05-05T03:40:36.253Z,13.27
2018-05-05T03:43:03.549Z,13.20
2018-05-05T03:45:30.935Z,13.03
2018-05-05T03:47:58.263Z,12.53
2018-05-05T03:50:25.598Z,11.00
2018-05-05T03:52:52.888Z,13.63
2018-05-05T03:55:20.174Z,11.63
2018-05-05T03:57:47.730Z,12.37
2018-05-05T04:00:20.840Z,12.10
2018-05-05T04:02:53.965Z,13.40
2018-05-05T04:05:36.221Z,13.30
2018-05-05T04:08:03.511Z,13.03
2018-05-05T04:10:30.883Z,13.53
2018-05-05T04:12:58.200Z,12.70
2018-05-05T04:15:25.493Z,12.53
2018-05-05T04:17:52.821Z,11.87
2018-05-05T04:20:20.184Z,11.93
2018-05-05T04:22:47.529Z,11.80
2018-05-05T04:25:14.866Z,11.93
2018-05-05T04:27:42.183Z,13.10
2018-05-05T04:30:09.489Z,11.90
2018-05-05T04:32:36.873Z,13.90
2018-05-05T04:35:04.172Z,12.83
2018-05-05T04:37:31.498Z,12.60
2018-05-05T04:39:59.168Z,12.60
2018-05-05T04:42:26.465Z,14.37
2018-05-05T04:44:53.811Z,12.47
2018-05-05T04:47:21.089Z,13.13
2018-05-05T04:49:48.450Z,12.50
2018-05-05T04:52:15.749Z,13.50
2018-05-05T04:54:43.459Z,10.80
2018-05-05T04:57:10.840Z,13.40
2018-05-05T04:59:38.081Z,13.20
2018-05-05T05:02:05.661Z,13.47
2018-05-05T05:04:33.124Z,13.93
2018-05-05T05:07:00.479Z,13.00
2018-05-05T05:09:27.811Z,12.53
2018-05-05T05:11:55.265Z,13.50
2018-05-05T05:14:22.545Z,13.03
2018-05-05T05:16:49.903Z,12.40
2018-05-05T05:19:17.502Z,14.77
2018-05-05T05:21:45.084Z,13.50
2018-05-05T05:24:12.467Z,12.80
2018-05-05T05:26:39.798Z,14.17
2018-05-05T05:29:07.143Z,14.07
2018-05-05T05:31:34.456Z,15.87
2018-05-05T05:34:01.832Z,16.10
2018-05-05T05:36:29.143Z,15.27
2018-05-05T05:38:56.974Z,17.80
2018-05-05T05:41:25.298Z,15.37
2018-05-05T05:43:52.650Z,17.80
2018-05-05T05:46:20.857Z,17.20
2018-05-05T05:48:48.178Z,15.20
2018-05-05T05:51:15.586Z,15.67
2018-05-05T05:53:42.885Z,16.53
2018-05-05T05:56:10.188Z,18.13
2018-05-05T05:58:37.487Z,19.40
2018-05-05T06:01:04.812Z,18.10
2018-05-05T06:03:32.412Z,16.67
2018-05-05T06:06:04.225Z,16.77
2018-05-05T06:08:31.527Z,16.73
2018-05-05T06:10:58.942Z,16.60
2018-05-05T06:13:26.288Z,18.30
2018-05-05T06:15:53.735Z,17.43
2018-05-05T06:18:21.080Z,17.83
2018-05-05T06:20:48.444Z,19.23
2018-05-05T06:23:15.794Z,18.40
2018-05-05T06:25:47.646Z,18.03
2018-05-05T06:28:15.061Z,18.97
2018-05-05T06:30:42.372Z,18.20
2018-05-05T06:33:09.760Z,19.50
2018-05-05T06:35:37.186Z,21.27
2018-05-05T06:38:04.500Z,20.37
2018-05-05T06:40:31.899Z,21.30
2018-05-05T06:45:32.333Z,20.67
2018-05-05T06:48:01.417Z,21.00
2018-05-05T06:50:30.269Z,21.13
2018-05-05T06:52:57.829Z,21.00
2018-05-05T06:55:25.226Z,20.30
2018-05-05T06:57:52.513Z,23.47
2018-05-05T07:05:32.525Z,24.03
2018-05-05T07:10:58.056Z,25.47
2018-05-05T07:13:26.359Z,25.40
2018-05-05T07:16:00.552Z,26.70
2018-05-05T07:18:28.232Z,25.30
2018-05-05T07:20:56.837Z,27.93
2018-05-05T07:25:56.629Z,27.83
2018-05-05T07:28:24.092Z,28.10
2018-05-05T07:33:27.725Z,28.37
2018-05-05T07:35:55.331Z,29.17
2018-05-05T07:38:23.754Z,29.70
2018-05-05T07:46:01.517Z,29.90
2018-05-05T07:48:29.778Z,29.70
2018-05-05T07:50:57.403Z,31.17
2018-05-05T07:53:24.968Z,32.30
2018-05-05T08:06:04.854Z,30.17
2018-05-05T08:11:06.074Z,28.43
2018-05-05T08:16:08.369Z,30.83
2018-05-05T08:21:08.147Z,26.17
2018-05-05T08:26:07.288Z,29.40
2018-05-05T08:31:17.512Z,31.10
2018-05-05T08:33:44.884Z,27.57
2018-05-05T08:36:12.305Z,33.27
2018-05-05T08:43:45.170Z,28.63
2018-05-05T08:56:23.811Z,29.60
2018-05-05T08:58:51.556Z,29.73
2018-05-05T09:01:19.061Z,31.60
2018-05-05T09:06:19.202Z,28.83
2018-05-05T09:08:46.526Z,32.50
2018-05-05T09:11:13.921Z,31.17
2018-05-05T09:13:41.374Z,31.17
2018-05-05T09:16:08.821Z,31.60
2018-05-05T09:21:08.180Z,32.20
2018-05-05T09:23:35.804Z,31.50
2018-05-05T09:26:03.434Z,31.50
2018-05-05T09:28:31.119Z,31.50
2018-05-05T09:36:10.651Z,26.97
2018-05-05T09:38:39.966Z,29.60
2018-05-05T09:41:07.526Z,31.20
2018-05-05T09:51:19.289Z,26.77
2018-05-05T09:53:49.793Z,30.13
2018-05-05T09:56:17.330Z,30.47
2018-05-05T09:58:44.975Z,28.33
2018-05-05T10:01:12.601Z,28.87
2018-05-05T10:11:23.976Z,27.20
2018-05-05T10:13:51.708Z,27.30
2018-05-05T10:16:19.514Z,26.67
2018-05-05T10:18:47.485Z,25.60
2018-05-05T10:21:14.910Z,26.83
2018-05-05T10:23:43.035Z,27.50
2018-05-05T10:26:11.396Z,29.10
2018-05-05T10:28:38.931Z,30.23
2018-05-05T10:31:06.540Z,27.90
2018-05-05T10:33:34.164Z,28.23
2018-05-05T10:41:07.811Z,26.40
2018-05-05T10:43:39.012Z,29.70
2018-05-05T10:48:38.327Z,23.20
2018-05-05T10:51:05.797Z,26.47
2018-05-05T10:56:05.517Z,24.70
2018-05-05T10:58:35.224Z,28.07
2018-05-05T11:06:11.064Z,25.87
2018-05-05T11:18:51.334Z,24.77
2018-05-05T11:21:18.763Z,27.00
2018-05-05T11:23:46.392Z,24.27
2018-05-05T11:26:15.002Z,26.67
2018-05-05T11:28:43.222Z,25.67
2018-05-05T11:31:10.653Z,25.70
2018-05-05T11:36:11.111Z,21.43
2018-05-05T11:41:10.410Z,20.83
2018-05-05T11:46:09.503Z,19.23
2018-05-05T11:48:37.775Z,20.30
2018-05-05T11:51:05.139Z,18.63
2018-05-05T11:56:12.941Z,17.60
2018-05-05T11:58:40.490Z,19.13
2018-05-05T12:03:39.950Z,24.83
2018-05-05T12:06:07.403Z,24.83
2018-05-05T12:11:06.672Z,24.93
2018-05-05T12:13:34.289Z,25.77
2018-05-05T12:16:01.661Z,19.77
2018-05-05T12:18:29.875Z,21.70
2018-05-05T12:23:29.495Z,23.77
2018-05-05T12:25:57.117Z,23.87
2018-05-05T12:28:24.494Z,23.27
2018-05-05T12:30:52.582Z,23.20
2018-05-05T12:33:20.340Z,22.90
2018-05-05T12:38:19.819Z,21.83
2018-05-05T12:40:47.407Z,22.30
2018-05-05T12:43:21.174Z,24.90
2018-05-05T12:45:48.742Z,20.60
2018-05-05T12:48:20.077Z,19.97
2018-05-05T12:50:47.755Z,21.93
2018-05-05T12:53:18.611Z,20.10
2018-05-05T12:55:46.648Z,21.93
2018-05-05T12:58:14.719Z,20.50
2018-05-05T13:00:42.138Z,21.70
2018-05-05T13:03:11.838Z,19.73
2018-05-05T13:05:39.216Z,23.77
2018-05-05T13:08:06.927Z,20.50
2018-05-05T13:10:34.915Z,22.00
2018-05-05T13:18:06.930Z,23.77
2018-05-05T13:20:37.910Z,24.37
2018-05-05T13:23:06.084Z,22.67
2018-05-05T13:25:33.558Z,24.73
2018-05-05T13:28:01.361Z,22.97
2018-05-05T13:30:29.057Z,23.47
2018-05-05T13:32:56.670Z,24.97
2018-05-05T13:35:24.014Z,23.90
2018-05-05T13:37:51.459Z,23.93
2018-05-05T13:40:18.841Z,22.70
2018-05-05T13:42:50.208Z,23.47
2018-05-05T13:45:17.667Z,24.60
2018-05-05T13:47:45.372Z,24.23
2018-05-05T13:50:12.739Z,21.23
2018-05-05T13:55:16.600Z,24.03
2018-05-05T13:57:44.084Z,23.57
2018-05-05T14:00:11.786Z,22.93
2018-05-05T14:02:39.225Z,22.27
2018-05-05T14:05:07.273Z,22.17
2018-05-05T14:07:35.079Z,20.00
2018-05-05T14:10:02.702Z,18.47
2018-05-05T14:12:31.174Z,20.70
2018-05-05T14:17:30.417Z,16.37
2018-05-05T14:19:59.142Z,16.10
2018-05-05T14:24:59.896Z,14.73
2018-05-05T14:27:27.415Z,16.27
2018-05-05T14:29:55.168Z,18.47
2018-05-05T14:32:27.433Z,16.20
2018-05-05T14:34:54.807Z,18.57
2018-05-05T14:37:22.473Z,15.90
2018-05-05T14:39:49.960Z,15.77
2018-05-05T14:42:17.757Z,15.80
2018-05-05T14:52:23.783Z,16.90
2018-05-05T14:57:22.864Z,15.03
2018-05-05T15:02:22.275Z,17.10
2018-05-05T15:04:49.719Z,15.87
2018-05-05T15:07:17.998Z,16.03
2018-05-05T15:09:46.081Z,17.70
2018-05-05T15:12:14.200Z,16.60
2018-05-05T15:14:41.601Z,18.80
2018-05-05T15:17:09.732Z,19.07
2018-05-05T15:19:37.949Z,19.00
2018-05-05T15:22:05.288Z,18.83
2018-05-05T15:27:04.287Z,17.80
2018-05-05T15:29:32.161Z,17.20
2018-05-05T15:31:59.774Z,17.90
2018-05-05T15:37:01.901Z,16.93
2018-05-05T15:39:29.580Z,18.20
2018-05-05T15:42:00.692Z,19.27
2018-05-05T15:47:00.263Z,17.20
2018-05-05T15:49:27.762Z,19.73
2018-05-05T15:57:00.511Z,19.03
2018-05-05T15:59:34.818Z,18.60
2018-05-05T16:02:02.256Z,19.23
2018-05-05T16:07:01.760Z,16.23
2018-05-05T16:14:36.853Z,17.50
2018-05-05T16:17:06.337Z,17.53
2018-05-05T16:19:34.059Z,16.40
2018-05-05T16:22:04.244Z,18.60
2018-05-05T16:27:03.520Z,17.73
2018-05-05T16:29:32.467Z,17.97
2018-05-05T16:32:05.291Z,19.13
2018-05-05T16:34:32.771Z,19.73
2018-05-05T16:37:00.675Z,21.80
2018-05-05T16:39:28.716Z,19.33
2018-05-05T16:44:30.175Z,21.50
2018-05-05T16:46:57.520Z,22.87
2018-05-05T16:59:41.432Z,19.40
2018-05-05T17:02:08.811Z,17.77
2018-05-05T17:04:37.147Z,18.23
2018-05-05T17:17:14.555Z,18.10
2018-05-05T17:19:42.804Z,19.20
2018-05-05T17:22:11.285Z,20.27
2018-05-05T17:32:14.274Z,19.57
2018-05-05T17:40:00.226Z,16.60
2018-05-05T17:42:28.732Z,16.93
2018-05-05T17:45:00.675Z,16.40
2018-05-05T17:47:28.117Z,16.47
2018-05-05T17:49:55.750Z,16.13
2018-05-05T17:54:57.366Z,15.13
2018-05-05T17:57:25.222Z,14.70
2018-05-05T17:59:52.615Z,16.90
2018-05-05T18:04:59.490Z,14.80
2018-05-05T18:10:05.015Z,17.30
2018-05-05T18:12:36.757Z,16.63
2018-05-05T18:15:04.568Z,17.97
2018-05-05T18:17:32.550Z,17.30
2018-05-05T18:27:36.844Z,18.90
2018-05-05T18:30:04.266Z,18.87
2018-05-05T18:32:35.785Z,16.80
2018-05-05T18:35:03.552Z,17.03
2018-05-05T18:42:34.754Z,21.37
2018-05-05T18:45:02.523Z,19.97
2018-05-05T18:52:44.120Z,17.30
2018-05-05T18:55:11.476Z,19.27
2018-05-05T19:00:11.374Z,17.27
2018-05-05T19:07:42.864Z,19.13
2018-05-05T19:10:10.275Z,18.33
2018-05-05T19:15:11.554Z,17.80
2018-05-05T19:17:39.085Z,17.97
2018-05-05T19:20:10.125Z,17.30
2018-05-05T19:22:37.899Z,18.50
2018-05-05T19:25:07.350Z,17.87
2018-05-05T19:27:35.027Z,16.93
2018-05-05T19:35:10.245Z,19.97
2018-05-05T19:37:37.593Z,17.73
2018-05-05T19:40:05.659Z,18.23
2018-05-05T19:42:33.829Z,18.57
2018-05-05T19:45:01.285Z,18.20
2018-05-05T19:47:30.467Z,18.17
2018-05-05T19:49:58.348Z,16.97
2018-05-05T19:52:33.064Z,16.90
2018-05-05T20:12:52.205Z,16.70
2018-05-05T20:15:20.790Z,16.33
2018-05-05T20:20:20.173Z,15.73
2018-05-05T20:25:19.205Z,18.50
2018-05-05T20:30:18.491Z,18.40
2018-05-05T20:35:18.023Z,15.90
2018-05-05T20:37:45.526Z,16.03
2018-05-05T20:40:12.988Z,18.20
2018-05-05T20:45:12.569Z,19.73
2018-05-05T20:47:40.150Z,39.50
2018-05-05T20:50:08.006Z,23.03
2018-05-05T20:52:35.772Z,19.77
2018-05-05T20:55:04.995Z,17.67
2018-05-05T20:57:32.613Z,18.70
2018-05-05T21:02:32.335Z,18.37
2018-05-05T21:07:31.724Z,17.87
2018-05-05T21:10:01.084Z,19.43
2018-05-05T21:12:29.036Z,20.80
2018-05-05T21:14:56.801Z,21.20
2018-05-05T21:17:24.124Z,19.60
2018-05-05T21:24:56.135Z,19.27
2018-05-05T21:32:26.996Z,17.37
2018-05-05T21:34:54.408Z,20.70
2018-05-05T21:37:22.081Z,18.30
2018-05-05T21:39:49.570Z,19.27
2018-05-05T21:42:17.398Z,18.80
2018-05-05T21:47:16.416Z,20.57
2018-05-05T21:49:44.691Z,20.90
2018-05-05T21:52:12.283Z,18.73
2018-05-05T21:57:14.362Z,18.77
2018-05-05T21:59:53.244Z,21.30
2018-05-05T22:02:20.580Z,20.77
2018-05-05T22:04:48.025Z,20.30
2018-05-05T22:07:15.647Z,21.33
2018-05-05T22:09:43.034Z,21.40
2018-05-05T22:12:10.489Z,21.40
2018-05-05T22:14:41.652Z,22.57
2018-05-05T22:17:10.781Z,21.87
2018-05-05T22:19:38.304Z,21.90
2018-05-05T22:22:05.702Z,21.53
2018-05-05T22:24:33.390Z,23.80
2018-05-05T22:27:00.759Z,23.83
2018-05-05T22:29:28.092Z,21.90
2018-05-05T22:31:55.825Z,21.17
2018-05-05T22:34:23.272Z,21.53
2018-05-05T22:36:53.062Z,22.67
2018-05-05T22:39:21.230Z,24.33
2018-05-05T22:41:48.553Z,23.57
2018-05-05T22:44:15.915Z,23.03
2018-05-05T22:46:44.765Z,22.50
2018-05-05T22:51:44.963Z,22.63
2018-05-05T22:54:15.991Z,22.17
2018-05-05T22:56:43.386Z,22.20
2018-05-05T22:59:10.734Z,22.40
2018-05-05T23:01:38.349Z,24.83
2018-05-05T23:04:05.704Z,24.20
2018-05-05T23:06:33.929Z,23.60
2018-05-05T23:09:03.321Z,23.87
2018-05-05T23:11:31.151Z,22.63
2018-05-05T23:13:58.630Z,25.30
2018-05-05T23:16:26.027Z,23.10
2018-05-05T23:18:53.638Z,22.07
2018-05-05T23:21:21.002Z,21.40
2018-05-05T23:23:48.387Z,21.67
2018-05-05T23:26:15.779Z,24.83
2018-05-05T23:28:43.234Z,22.23
2018-05-05T23:31:12.591Z,22.80
2018-05-05T23:33:43.440Z,20.17
2018-05-05T23:36:10.787Z,22.87
2018-05-05T23:38:38.222Z,23.80
2018-05-05T23:41:05.906Z,23.37
2018-05-05T23:43:33.313Z,21.20
2018-05-05T23:48:32.639Z,21.13
2018-05-05T23:51:00.533Z,21.63
2018-05-05T23:53:29.800Z,23.47
2018-05-05T23:55:57.359Z,22.50
2018-05-05T23:58:24.658Z,21.33
